sensor_id;sensor_type;location;lat;lon;timestamp;pressure;altitude;pressure_sealevel;temperature;humidity
18697;BME280;22617;43.690;27.956;2023-02-11T00:05:02;100792.94;;;-5.69;72.14
18697;BME280;22617;43.690;27.956;2023-02-11T00:10:06;100784.22;;;-5.62;73.01
18697;BME280;22617;43.690;27.956;2023-02-11T00:15:10;100775.66;;;-5.73;72.39
18697;BME280;22617;43.690;27.956;2023-02-11T00:20:15;100769.28;;;-5.78;72.68
18697;BME280;22617;43.690;27.956;2023-02-11T00:25:19;100763.59;;;-5.76;73.01
18697;BME280;22617;43.690;27.956;2023-02-11T00:30:22;100768.25;;;-5.61;73.08
18697;BME280;22617;43.690;27.956;2023-02-11T00:35:29;100753.41;;;-5.57;73.15
18697;BME280;22617;43.690;27.956;2023-02-11T00:40:32;100755.16;;;-5.66;72.94
18697;BME280;22617;43.690;27.956;2023-02-11T00:45:37;100737.84;;;-5.70;73.37
18697;BME280;22617;43.690;27.956;2023-02-11T00:50:42;100742.47;;;-5.66;73.15
18697;BME280;22617;43.690;27.956;2023-02-11T00:55:46;100741.84;;;-5.82;73.47
18697;BME280;22617;43.690;27.956;2023-02-11T01:00:50;100741.16;;;-6.00;72.76
18697;BME280;22617;43.690;27.956;2023-02-11T01:05:56;100737.19;;;-6.06;73.30
18697;BME280;22617;43.690;27.956;2023-02-11T01:11:02;100739.88;;;-6.24;73.05
18697;BME280;22617;43.690;27.956;2023-02-11T01:16:08;100738.50;;;-6.20;73.66
18697;BME280;22617;43.690;27.956;2023-02-11T01:21:14;100728.44;;;-6.10;73.15
18697;BME280;22617;43.690;27.956;2023-02-11T01:26:17;100725.19;;;-6.18;72.97
18697;BME280;22617;43.690;27.956;2023-02-11T01:31:21;100727.88;;;-6.16;73.04
18697;BME280;22617;43.690;27.956;2023-02-11T01:36:27;100731.72;;;-6.30;73.00
18697;BME280;22617;43.690;27.956;2023-02-11T01:41:35;100724.31;;;-6.37;73.24
18697;BME280;22617;43.690;27.956;2023-02-11T01:46:38;100718.47;;;-6.36;73.54
18697;BME280;22617;43.690;27.956;2023-02-11T01:51:47;100714.44;;;-6.34;73.48
18697;BME280;22617;43.690;27.956;2023-02-11T01:56:54;100715.47;;;-6.32;73.65
18697;BME280;22617;43.690;27.956;2023-02-11T02:02:14;100708.91;;;-6.30;73.59
18697;BME280;22617;43.690;27.956;2023-02-11T02:07:27;100716.41;;;-6.21;73.44
18697;BME280;22617;43.690;27.956;2023-02-11T02:12:35;100726.91;;;-6.27;73.72
18697;BME280;22617;43.690;27.956;2023-02-11T02:17:46;100721.84;;;-6.27;74.08
18697;BME280;22617;43.690;27.956;2023-02-11T02:23:21;100722.97;;;-6.33;73.71
18697;BME280;22617;43.690;27.956;2023-02-11T02:28:40;100732.25;;;-6.42;73.84
18697;BME280;22617;43.690;27.956;2023-02-11T02:33:52;100735.25;;;-6.46;72.85
18697;BME280;22617;43.690;27.956;2023-02-11T02:39:05;100723.13;;;-6.59;72.98
18697;BME280;22617;43.690;27.956;2023-02-11T02:44:10;100736.06;;;-6.56;73.56
18697;BME280;22617;43.690;27.956;2023-02-11T02:49:16;100733.28;;;-6.59;72.85
18697;BME280;22617;43.690;27.956;2023-02-11T02:54:40;100725.19;;;-6.55;73.34
18697;BME280;22617;43.690;27.956;2023-02-11T02:59:58;100719.72;;;-6.59;73.69
18697;BME280;22617;43.690;27.956;2023-02-11T03:05:11;100714.78;;;-6.58;74.07
18697;BME280;22617;43.690;27.956;2023-02-11T03:10:21;100713.06;;;-6.68;73.89
18697;BME280;22617;43.690;27.956;2023-02-11T03:15:30;100713.47;;;-6.63;74.34
18697;BME280;22617;43.690;27.956;2023-02-11T03:20:38;100708.09;;;-6.66;74.21
18697;BME280;22617;43.690;27.956;2023-02-11T03:25:47;100704.56;;;-6.68;74.04
18697;BME280;22617;43.690;27.956;2023-02-11T03:30:56;100703.41;;;-6.72;73.94
18697;BME280;22617;43.690;27.956;2023-02-11T03:36:07;100700.44;;;-6.76;73.59
18697;BME280;22617;43.690;27.956;2023-02-11T03:41:13;100702.13;;;-6.85;73.90
18697;BME280;22617;43.690;27.956;2023-02-11T03:46:20;100694.06;;;-6.81;74.71
18697;BME280;22617;43.690;27.956;2023-02-11T03:51:28;100688.78;;;-6.74;74.17
18697;BME280;22617;43.690;27.956;2023-02-11T03:56:39;100688.72;;;-6.66;74.10
18697;BME280;22617;43.690;27.956;2023-02-11T04:01:44;100689.19;;;-6.70;74.04
18697;BME280;22617;43.690;27.956;2023-02-11T04:07:14;100685.59;;;-6.63;74.38
18697;BME280;22617;43.690;27.956;2023-02-11T04:12:17;100701.28;;;-6.67;74.04
18697;BME280;22617;43.690;27.956;2023-02-11T04:17:21;100686.75;;;-6.78;73.83
18697;BME280;22617;43.690;27.956;2023-02-11T04:22:25;100682.16;;;-6.82;73.50
18697;BME280;22617;43.690;27.956;2023-02-11T04:27:29;100686.81;;;-6.87;73.93
18697;BME280;22617;43.690;27.956;2023-02-11T04:32:33;100689.72;;;-7.01;73.81
18697;BME280;22617;43.690;27.956;2023-02-11T04:37:38;100686.78;;;-7.06;74.11
18697;BME280;22617;43.690;27.956;2023-02-11T04:42:41;100675.41;;;-7.00;73.64
18697;BME280;22617;43.690;27.956;2023-02-11T04:47:45;100678.47;;;-6.94;73.77
18697;BME280;22617;43.690;27.956;2023-02-11T04:52:51;100670.88;;;-6.94;73.62
18697;BME280;22617;43.690;27.956;2023-02-11T04:57:57;100670.88;;;-6.94;73.40
18697;BME280;22617;43.690;27.956;2023-02-11T05:03:01;100680.19;;;-7.03;73.44
18697;BME280;22617;43.690;27.956;2023-02-11T05:08:06;100671.56;;;-7.06;73.88
18697;BME280;22617;43.690;27.956;2023-02-11T05:13:12;100669.38;;;-7.11;74.03
18697;BME280;22617;43.690;27.956;2023-02-11T05:18:15;100666.34;;;-7.07;74.22
18697;BME280;22617;43.690;27.956;2023-02-11T05:23:23;100665.97;;;-6.93;74.34
18697;BME280;22617;43.690;27.956;2023-02-11T05:28:27;100678.88;;;-6.81;73.94
18697;BME280;22617;43.690;27.956;2023-02-11T05:33:31;100678.88;;;-6.81;73.76
18697;BME280;22617;43.690;27.956;2023-02-11T05:38:36;100672.44;;;-6.78;73.07
18697;BME280;22617;43.690;27.956;2023-02-11T05:43:40;100668.84;;;-6.80;72.96
18697;BME280;22617;43.690;27.956;2023-02-11T05:48:43;100671.63;;;-6.68;73.42
18697;BME280;22617;43.690;27.956;2023-02-11T05:53:51;100663.78;;;-6.61;73.42
18697;BME280;22617;43.690;27.956;2023-02-11T05:58:57;100677.50;;;-6.40;73.13
18697;BME280;22617;43.690;27.956;2023-02-11T06:04:01;100685.50;;;-6.17;72.55
18697;BME280;22617;43.690;27.956;2023-02-11T06:09:07;100674.06;;;-5.83;71.96
18697;BME280;22617;43.690;27.956;2023-02-11T06:14:11;100677.38;;;-5.45;71.95
18697;BME280;22617;43.690;27.956;2023-02-11T06:19:15;100690.28;;;-5.13;70.60
18697;BME280;22617;43.690;27.956;2023-02-11T06:24:20;100684.41;;;-5.02;69.74
18697;BME280;22617;43.690;27.956;2023-02-11T06:29:44;100689.66;;;-4.91;69.51
18697;BME280;22617;43.690;27.956;2023-02-11T06:34:47;100691.31;;;-4.71;70.04
18697;BME280;22617;43.690;27.956;2023-02-11T06:39:55;100694.47;;;-4.43;69.64
18697;BME280;22617;43.690;27.956;2023-02-11T06:44:58;100686.06;;;-4.32;68.99
18697;BME280;22617;43.690;27.956;2023-02-11T06:50:05;100685.38;;;-4.09;68.89
18697;BME280;22617;43.690;27.956;2023-02-11T06:55:12;100677.03;;;-3.97;68.64
18697;BME280;22617;43.690;27.956;2023-02-11T07:00:16;100680.63;;;-3.94;68.71
18697;BME280;22617;43.690;27.956;2023-02-11T07:05:20;100671.16;;;-3.85;68.52
18697;BME280;22617;43.690;27.956;2023-02-11T07:10:25;100681.88;;;-3.68;68.75
18697;BME280;22617;43.690;27.956;2023-02-11T07:15:28;100677.69;;;-3.67;68.56
18697;BME280;22617;43.690;27.956;2023-02-11T07:20:32;100676.69;;;-3.47;69.07
18697;BME280;22617;43.690;27.956;2023-02-11T07:25:37;100667.78;;;-3.09;68.92
18697;BME280;22617;43.690;27.956;2023-02-11T07:30:41;100658.69;;;-2.84;68.68
18697;BME280;22617;43.690;27.956;2023-02-11T07:35:44;100673.59;;;-3.00;68.88
18697;BME280;22617;43.690;27.956;2023-02-11T07:40:49;100663.25;;;-2.80;68.65
18697;BME280;22617;43.690;27.956;2023-02-11T07:45:53;100652.22;;;-2.45;68.80
18697;BME280;22617;43.690;27.956;2023-02-11T07:51:04;100650.53;;;-2.10;68.54
18697;BME280;22617;43.690;27.956;2023-02-11T07:56:11;100657.13;;;-2.02;67.84
18697;BME280;22617;43.690;27.956;2023-02-11T08:01:18;100645.09;;;-2.14;68.58
18697;BME280;22617;43.690;27.956;2023-02-11T08:06:24;100642.44;;;-1.93;67.58
18697;BME280;22617;43.690;27.956;2023-02-11T08:11:30;100631.44;;;-2.03;67.53
18697;BME280;22617;43.690;27.956;2023-02-11T08:16:35;100626.88;;;-1.84;68.69
18697;BME280;22617;43.690;27.956;2023-02-11T08:21:40;100612.81;;;-1.66;67.77
18697;BME280;22617;43.690;27.956;2023-02-11T08:26:45;100611.50;;;-1.36;68.08
18697;BME280;22617;43.690;27.956;2023-02-11T08:31:51;100606.75;;;-0.94;66.07
18697;BME280;22617;43.690;27.956;2023-02-11T08:36:55;100602.22;;;-0.20;66.03
18697;BME280;22617;43.690;27.956;2023-02-11T08:41:59;100604.75;;;-0.07;65.38
18697;BME280;22617;43.690;27.956;2023-02-11T08:47:05;100603.13;;;0.21;65.08
18697;BME280;22617;43.690;27.956;2023-02-11T08:52:09;100599.19;;;0.54;64.07
18697;BME280;22617;43.690;27.956;2023-02-11T08:57:14;100595.69;;;0.52;63.18
18697;BME280;22617;43.690;27.956;2023-02-11T09:02:17;100590.63;;;0.81;63.66
18697;BME280;22617;43.690;27.956;2023-02-11T09:07:21;100586.06;;;1.35;63.29
18697;BME280;22617;43.690;27.956;2023-02-11T09:12:26;100585.78;;;1.45;61.30
18697;BME280;22617;43.690;27.956;2023-02-11T09:17:29;100583.56;;;1.65;61.04
18697;BME280;22617;43.690;27.956;2023-02-11T09:22:33;100570.06;;;2.31;60.11
18697;BME280;22617;43.690;27.956;2023-02-11T09:27:38;100556.47;;;2.17;60.52
18697;BME280;22617;43.690;27.956;2023-02-11T09:32:42;100548.25;;;3.05;59.96
18697;BME280;22617;43.690;27.956;2023-02-11T09:37:46;100547.28;;;3.03;58.20
18697;BME280;22617;43.690;27.956;2023-02-11T09:42:52;100543.34;;;3.10;58.08
18697;BME280;22617;43.690;27.956;2023-02-11T09:48:09;100535.28;;;3.91;57.21
18697;BME280;22617;43.690;27.956;2023-02-11T09:53:22;100528.34;;;3.90;57.06
18697;BME280;22617;43.690;27.956;2023-02-11T09:58:32;100518.28;;;4.51;57.35
18697;BME280;22617;43.690;27.956;2023-02-11T10:04:00;100514.63;;;4.86;57.26
18697;BME280;22617;43.690;27.956;2023-02-11T10:09:18;100498.03;;;5.41;55.53
18697;BME280;22617;43.690;27.956;2023-02-11T10:14:43;100499.13;;;5.89;55.44
18697;BME280;22617;43.690;27.956;2023-02-11T10:20:06;100496.50;;;5.46;55.44
18697;BME280;22617;43.690;27.956;2023-02-11T10:25:19;100492.22;;;5.05;54.43
18697;BME280;22617;43.690;27.956;2023-02-11T10:30:31;100475.56;;;5.61;53.85
18697;BME280;22617;43.690;27.956;2023-02-11T10:35:37;100455.66;;;6.50;51.96
18697;BME280;22617;43.690;27.956;2023-02-11T10:40:41;100444.75;;;6.59;53.11
18697;BME280;22617;43.690;27.956;2023-02-11T10:45:48;100436.56;;;6.72;51.72
18697;BME280;22617;43.690;27.956;2023-02-11T10:51:06;100436.03;;;6.82;51.42
18697;BME280;22617;43.690;27.956;2023-02-11T10:56:11;100427.09;;;6.47;52.61
18697;BME280;22617;43.690;27.956;2023-02-11T11:01:18;100422.00;;;6.76;51.90
18697;BME280;22617;43.690;27.956;2023-02-11T11:06:30;100413.25;;;6.97;50.53
18697;BME280;22617;43.690;27.956;2023-02-11T11:11:50;100404.00;;;7.06;49.77
18697;BME280;22617;43.690;27.956;2023-02-11T11:16:55;100394.66;;;7.37;50.51
18697;BME280;22617;43.690;27.956;2023-02-11T11:21:59;100398.81;;;7.06;49.43
18697;BME280;22617;43.690;27.956;2023-02-11T11:27:04;100383.88;;;7.82;48.37
18697;BME280;22617;43.690;27.956;2023-02-11T11:32:14;100367.78;;;7.94;48.22
18697;BME280;22617;43.690;27.956;2023-02-11T11:37:24;100361.97;;;8.32;47.79
18697;BME280;22617;43.690;27.956;2023-02-11T11:42:30;100350.50;;;7.94;48.65
18697;BME280;22617;43.690;27.956;2023-02-11T11:47:39;100347.47;;;7.79;46.95
18697;BME280;22617;43.690;27.956;2023-02-11T11:52:53;100337.75;;;7.43;48.49
18697;BME280;22617;43.690;27.956;2023-02-11T11:57:58;100330.06;;;7.75;47.40
18697;BME280;22617;43.690;27.956;2023-02-11T12:08:47;100327.25;;;7.39;48.79
18697;BME280;22617;43.690;27.956;2023-02-11T12:14:06;100314.63;;;7.79;48.10
18697;BME280;22617;43.690;27.956;2023-02-11T12:19:34;100305.88;;;7.77;48.82
18697;BME280;22617;43.690;27.956;2023-02-11T12:24:54;100302.34;;;8.05;49.23
18697;BME280;22617;43.690;27.956;2023-02-11T12:30:03;100300.63;;;7.44;48.60
18697;BME280;22617;43.690;27.956;2023-02-11T12:35:31;100299.47;;;6.53;50.21
18697;BME280;22617;43.690;27.956;2023-02-11T12:40:44;100293.88;;;7.21;48.21
18697;BME280;22617;43.690;27.956;2023-02-11T12:46:00;100285.97;;;7.17;49.96
18697;BME280;22617;43.690;27.956;2023-02-11T12:51:15;100286.31;;;7.00;49.35
18697;BME280;22617;43.690;27.956;2023-02-11T12:56:30;100267.44;;;7.33;49.79
18697;BME280;22617;43.690;27.956;2023-02-11T13:01:41;100265.13;;;6.85;49.13
18697;BME280;22617;43.690;27.956;2023-02-11T13:06:49;100268.00;;;6.41;50.00
18697;BME280;22617;43.690;27.956;2023-02-11T13:11:57;100248.97;;;6.66;49.73
18697;BME280;22617;43.690;27.956;2023-02-11T13:17:28;100252.38;;;6.38;49.03
18697;BME280;22617;43.690;27.956;2023-02-11T13:22:38;100261.94;;;6.13;49.40
18697;BME280;22617;43.690;27.956;2023-02-11T13:27:53;100252.81;;;5.99;49.58
18697;BME280;22617;43.690;27.956;2023-02-11T13:33:03;100249.13;;;5.45;50.58
18697;BME280;22617;43.690;27.956;2023-02-11T13:38:18;100252.34;;;5.63;50.60
18697;BME280;22617;43.690;27.956;2023-02-11T13:43:28;100236.78;;;5.38;51.54
18697;BME280;22617;43.690;27.956;2023-02-11T13:48:35;100238.72;;;4.98;49.94
18697;BME280;22617;43.690;27.956;2023-02-11T13:53:45;100228.41;;;4.99;50.02
18697;BME280;22617;43.690;27.956;2023-02-11T13:58:51;100215.47;;;4.98;50.49
18697;BME280;22617;43.690;27.956;2023-02-11T14:04:17;100214.88;;;4.82;51.23
18697;BME280;22617;43.690;27.956;2023-02-11T14:09:39;100204.97;;;4.93;53.06
18697;BME280;22617;43.690;27.956;2023-02-11T14:15:14;100204.22;;;4.73;51.72
18697;BME280;22617;43.690;27.956;2023-02-11T14:20:41;100192.94;;;4.49;53.11
18697;BME280;22617;43.690;27.956;2023-02-11T14:25:54;100184.41;;;4.29;53.98
18697;BME280;22617;43.690;27.956;2023-02-11T14:31:06;100184.59;;;4.13;55.13
18697;BME280;22617;43.690;27.956;2023-02-11T14:36:22;100182.25;;;3.99;56.17
18697;BME280;22617;43.690;27.956;2023-02-11T14:41:38;100166.41;;;3.89;57.27
18697;BME280;22617;43.690;27.956;2023-02-11T14:46:48;100169.59;;;3.82;58.06
18697;BME280;22617;43.690;27.956;2023-02-11T14:51:55;100166.81;;;3.78;58.13
18697;BME280;22617;43.690;27.956;2023-02-11T14:57:10;100170.94;;;3.54;59.00
18697;BME280;22617;43.690;27.956;2023-02-11T15:02:21;100161.28;;;3.69;58.78
18697;BME280;22617;43.690;27.956;2023-02-11T15:07:27;100169.06;;;3.30;59.61
18697;BME280;22617;43.690;27.956;2023-02-11T15:12:31;100171.69;;;2.93;59.24
18697;BME280;22617;43.690;27.956;2023-02-11T15:17:39;100170.41;;;2.84;60.51
18697;BME280;22617;43.690;27.956;2023-02-11T15:22:44;100167.38;;;2.73;60.58
18697;BME280;22617;43.690;27.956;2023-02-11T15:27:50;100154.69;;;2.41;61.85
18697;BME280;22617;43.690;27.956;2023-02-11T15:32:56;100161.66;;;2.26;62.32
18697;BME280;22617;43.690;27.956;2023-02-11T15:38:02;100155.47;;;2.21;62.63
18697;BME280;22617;43.690;27.956;2023-02-11T15:43:08;100148.91;;;2.09;62.74
18697;BME280;22617;43.690;27.956;2023-02-11T15:48:15;100151.50;;;1.92;62.38
18697;BME280;22617;43.690;27.956;2023-02-11T15:53:23;100152.34;;;1.74;62.78
18697;BME280;22617;43.690;27.956;2023-02-11T15:58:35;100154.69;;;1.70;62.92
18697;BME280;22617;43.690;27.956;2023-02-11T16:03:41;100155.78;;;1.57;63.14
18697;BME280;22617;43.690;27.956;2023-02-11T16:08:59;100154.94;;;1.58;63.53
18697;BME280;22617;43.690;27.956;2023-02-11T16:14:20;100138.78;;;1.43;63.53
18697;BME280;22617;43.690;27.956;2023-02-11T16:19:28;100145.63;;;1.26;64.12
18697;BME280;22617;43.690;27.956;2023-02-11T16:24:34;100142.13;;;1.24;64.61
18697;BME280;22617;43.690;27.956;2023-02-11T16:29:37;100142.75;;;1.20;65.62
18697;BME280;22617;43.690;27.956;2023-02-11T16:34:42;100140.59;;;1.12;66.52
18697;BME280;22617;43.690;27.956;2023-02-11T16:39:46;100139.00;;;1.14;66.96
18697;BME280;22617;43.690;27.956;2023-02-11T16:44:50;100152.47;;;1.10;66.58
18697;BME280;22617;43.690;27.956;2023-02-11T16:49:55;100159.94;;;1.05;66.55
18697;BME280;22617;43.690;27.956;2023-02-11T16:54:59;100159.44;;;0.96;66.67
18697;BME280;22617;43.690;27.956;2023-02-11T17:00:04;100142.69;;;0.86;67.40
18697;BME280;22617;43.690;27.956;2023-02-11T17:05:16;100136.03;;;0.74;67.66
18697;BME280;22617;43.690;27.956;2023-02-11T17:10:24;100126.97;;;0.64;67.21
18697;BME280;22617;43.690;27.956;2023-02-11T17:15:27;100121.94;;;0.66;66.42
18697;BME280;22617;43.690;27.956;2023-02-11T17:20:32;100111.34;;;0.60;66.55
18697;BME280;22617;43.690;27.956;2023-02-11T17:25:36;100116.13;;;0.54;66.72
18697;BME280;22617;43.690;27.956;2023-02-11T17:30:40;100116.69;;;0.48;66.67
18697;BME280;22617;43.690;27.956;2023-02-11T17:35:46;100111.78;;;0.36;66.85
18697;BME280;22617;43.690;27.956;2023-02-11T17:40:57;100111.88;;;0.38;66.88
18697;BME280;22617;43.690;27.956;2023-02-11T17:46:04;100112.03;;;0.41;66.92
18697;BME280;22617;43.690;27.956;2023-02-11T17:51:20;100106.06;;;0.26;67.61
18697;BME280;22617;43.690;27.956;2023-02-11T17:56:25;100106.94;;;-0.05;67.63
18697;BME280;22617;43.690;27.956;2023-02-11T18:01:30;100098.25;;;-0.23;68.51
18697;BME280;22617;43.690;27.956;2023-02-11T18:06:35;100107.81;;;-0.35;69.00
18697;BME280;22617;43.690;27.956;2023-02-11T18:11:39;100115.50;;;-0.50;69.46
18697;BME280;22617;43.690;27.956;2023-02-11T18:16:43;100093.09;;;-0.68;70.00
18697;BME280;22617;43.690;27.956;2023-02-11T18:21:50;100086.09;;;-0.56;70.35
18697;BME280;22617;43.690;27.956;2023-02-11T18:26:53;100074.03;;;-0.59;70.30
18697;BME280;22617;43.690;27.956;2023-02-11T18:31:59;100066.41;;;-0.57;69.88
18697;BME280;22617;43.690;27.956;2023-02-11T18:37:04;100053.53;;;-0.44;69.56
18697;BME280;22617;43.690;27.956;2023-02-11T18:42:10;100054.19;;;-0.63;69.80
18697;BME280;22617;43.690;27.956;2023-02-11T18:47:20;100053.63;;;-0.72;69.75
18697;BME280;22617;43.690;27.956;2023-02-11T18:52:27;100047.81;;;-0.84;69.80
18697;BME280;22617;43.690;27.956;2023-02-11T18:57:32;100041.56;;;-0.74;69.80
18697;BME280;22617;43.690;27.956;2023-02-11T19:02:36;100028.31;;;-0.67;69.98
18697;BME280;22617;43.690;27.956;2023-02-11T19:07:41;100037.69;;;-0.82;69.49
18697;BME280;22617;43.690;27.956;2023-02-11T19:12:44;100030.44;;;-0.90;69.67
18697;BME280;22617;43.690;27.956;2023-02-11T19:17:48;100024.94;;;-0.96;69.45
18697;BME280;22617;43.690;27.956;2023-02-11T19:22:53;100011.38;;;-0.95;68.75
18697;BME280;22617;43.690;27.956;2023-02-11T19:27:56;100002.75;;;-0.82;68.53
18697;BME280;22617;43.690;27.956;2023-02-11T19:33:00;100014.03;;;-0.78;68.41
18697;BME280;22617;43.690;27.956;2023-02-11T19:38:05;100001.84;;;-0.82;67.74
18697;BME280;22617;43.690;27.956;2023-02-11T19:43:09;99989.13;;;-0.96;68.19
18697;BME280;22617;43.690;27.956;2023-02-11T19:48:13;99977.16;;;-0.97;68.23
18697;BME280;22617;43.690;27.956;2023-02-11T19:53:18;99979.63;;;-0.98;68.65
18697;BME280;22617;43.690;27.956;2023-02-11T19:58:22;99971.97;;;-1.13;69.25
18697;BME280;22617;43.690;27.956;2023-02-11T20:03:25;99968.97;;;-1.06;69.46
18697;BME280;22617;43.690;27.956;2023-02-11T20:08:30;99965.78;;;-1.02;69.58
18697;BME280;22617;43.690;27.956;2023-02-11T20:13:34;99964.28;;;-1.13;69.76
18697;BME280;22617;43.690;27.956;2023-02-11T20:18:39;99953.34;;;-1.10;69.04
18697;BME280;22617;43.690;27.956;2023-02-11T20:23:44;99944.25;;;-1.20;69.71
18697;BME280;22617;43.690;27.956;2023-02-11T20:28:49;99934.03;;;-1.20;69.17
18697;BME280;22617;43.690;27.956;2023-02-11T20:33:53;99928.50;;;-1.27;69.61
18697;BME280;22617;43.690;27.956;2023-02-11T20:38:59;99920.09;;;-1.10;68.77
18697;BME280;22617;43.690;27.956;2023-02-11T20:44:05;99917.19;;;-1.02;68.95
18697;BME280;22617;43.690;27.956;2023-02-11T20:49:10;99909.59;;;-1.00;68.81
18697;BME280;22617;43.690;27.956;2023-02-11T20:54:17;99903.06;;;-1.10;68.29
18697;BME280;22617;43.690;27.956;2023-02-11T20:59:20;99888.16;;;-1.02;67.56
18697;BME280;22617;43.690;27.956;2023-02-11T21:04:26;99889.47;;;-0.94;67.14
18697;BME280;22617;43.690;27.956;2023-02-11T21:09:32;99876.13;;;-0.89;66.95
18697;BME280;22617;43.690;27.956;2023-02-11T21:14:35;99868.31;;;-0.92;66.92
18697;BME280;22617;43.690;27.956;2023-02-11T21:19:39;99858.22;;;-0.89;66.56
18697;BME280;22617;43.690;27.956;2023-02-11T21:24:45;99856.56;;;-0.88;66.69
18697;BME280;22617;43.690;27.956;2023-02-11T21:29:49;99844.78;;;-0.84;66.67
18697;BME280;22617;43.690;27.956;2023-02-11T21:34:55;99845.38;;;-1.05;67.50
18697;BME280;22617;43.690;27.956;2023-02-11T21:40:07;99848.16;;;-0.85;67.21
18697;BME280;22617;43.690;27.956;2023-02-11T21:45:11;99847.19;;;-0.88;67.08
18697;BME280;22617;43.690;27.956;2023-02-11T21:50:16;99855.03;;;-0.84;66.94
18697;BME280;22617;43.690;27.956;2023-02-11T21:55:21;99841.94;;;-0.74;66.00
18697;BME280;22617;43.690;27.956;2023-02-11T22:00:25;99835.06;;;-0.75;66.49
18697;BME280;22617;43.690;27.956;2023-02-11T22:05:29;99825.00;;;-0.72;66.36
18697;BME280;22617;43.690;27.956;2023-02-11T22:10:34;99819.38;;;-0.65;65.93
18697;BME280;22617;43.690;27.956;2023-02-11T22:15:37;99814.50;;;-0.61;64.80
18697;BME280;22617;43.690;27.956;2023-02-11T22:20:41;99815.56;;;-0.73;65.32
18697;BME280;22617;43.690;27.956;2023-02-11T22:25:45;99808.03;;;-0.70;65.56
18697;BME280;22617;43.690;27.956;2023-02-11T22:30:52;99810.91;;;-0.64;65.10
18697;BME280;22617;43.690;27.956;2023-02-11T22:36:00;99819.25;;;-0.68;65.69
18697;BME280;22617;43.690;27.956;2023-02-11T22:41:07;99823.28;;;-0.72;66.00
18697;BME280;22617;43.690;27.956;2023-02-11T22:46:13;99821.13;;;-0.80;65.78
18697;BME280;22617;43.690;27.956;2023-02-11T22:51:19;99821.13;;;-0.80;66.28
18697;BME280;22617;43.690;27.956;2023-02-11T22:56:25;99810.91;;;-0.80;65.66
18697;BME280;22617;43.690;27.956;2023-02-11T23:01:30;99821.91;;;-0.81;66.46
18697;BME280;22617;43.690;27.956;2023-02-11T23:06:34;99813.41;;;-0.82;66.02
18697;BME280;22617;43.690;27.956;2023-02-11T23:11:38;99813.53;;;-0.79;65.69
18697;BME280;22617;43.690;27.956;2023-02-11T23:16:42;99808.53;;;-0.77;66.09
18697;BME280;22617;43.690;27.956;2023-02-11T23:21:49;99797.47;;;-0.76;65.98
18697;BME280;22617;43.690;27.956;2023-02-11T23:26:54;99796.28;;;-0.83;65.87
18697;BME280;22617;43.690;27.956;2023-02-11T23:31:58;99808.47;;;-0.94;66.87
18697;BME280;22617;43.690;27.956;2023-02-11T23:37:01;99803.53;;;-0.91;67.24
18697;BME280;22617;43.690;27.956;2023-02-11T23:42:06;99803.38;;;-0.94;67.51
18697;BME280;22617;43.690;27.956;2023-02-11T23:47:10;99801.78;;;-0.92;67.52
18697;BME280;22617;43.690;27.956;2023-02-11T23:52:14;99803.22;;;-0.97;67.46
18697;BME280;22617;43.690;27.956;2023-02-11T23:57:19;99791.66;;;-1.05;67.43
